createdAt,value
2019-01-24T00:01:43.378Z,-2.10
2019-01-24T00:04:09.644Z,-2.10
2019-01-24T00:06:35.878Z,-2.00
2019-01-24T00:09:05.560Z,-2.00
2019-01-24T00:11:31.826Z,-2.10
2019-01-24T00:13:58.087Z,-2.10
2019-01-24T00:16:24.362Z,-2.10
2019-01-24T00:18:50.577Z,-2.10
2019-01-24T00:21:16.814Z,-2.10
2019-01-24T00:23:43.095Z,-2.00
2019-01-24T00:26:09.350Z,-2.10
2019-01-24T00:28:35.622Z,-2.10
2019-01-24T00:31:02.305Z,-2.10
2019-01-24T00:33:28.825Z,-2.10
2019-01-24T00:35:55.496Z,-2.10
2019-01-24T00:38:21.734Z,-2.10
2019-01-24T00:40:47.973Z,-2.10
2019-01-24T00:43:14.672Z,-2.10
2019-01-24T00:45:40.981Z,-2.10
2019-01-24T00:48:07.340Z,-2.10
2019-01-24T00:50:33.732Z,-2.10
2019-01-24T00:53:00.270Z,-2.00
2019-01-24T00:55:26.502Z,-2.10
2019-01-24T00:57:53.192Z,-2.10
2019-01-24T01:00:24.357Z,-2.10
2019-01-24T01:02:50.702Z,-2.10
2019-01-24T01:05:17.281Z,-2.10
2019-01-24T01:07:43.715Z,-2.10
2019-01-24T01:10:11.369Z,-2.10
2019-01-24T01:12:37.729Z,-2.10
2019-01-24T01:15:07.788Z,-2.10
2019-01-24T01:17:34.270Z,-2.10
2019-01-24T01:20:00.517Z,-2.10
2019-01-24T01:22:27.086Z,-2.10
2019-01-24T01:24:53.356Z,-2.10
2019-01-24T01:27:19.585Z,-2.10
2019-01-24T01:29:45.853Z,-2.10
2019-01-24T01:32:12.106Z,-2.10
2019-01-24T01:34:38.485Z,-2.10
2019-01-24T01:37:05.044Z,-2.10
2019-01-24T01:39:31.298Z,-2.10
2019-01-24T01:41:57.650Z,-2.10
2019-01-24T01:44:23.918Z,-2.10
2019-01-24T01:46:50.174Z,-2.10
2019-01-24T01:49:16.709Z,-2.10
2019-01-24T01:51:42.971Z,-2.10
2019-01-24T01:54:09.224Z,-2.10
2019-01-24T01:56:35.480Z,-2.10
2019-01-24T01:59:01.740Z,-2.00
2019-01-24T02:01:28.093Z,-2.10
2019-01-24T02:03:54.340Z,-2.10
2019-01-24T02:06:20.910Z,-2.10
2019-01-24T02:08:47.166Z,-2.00
2019-01-24T02:11:13.434Z,-2.10
2019-01-24T02:13:39.677Z,-2.10
2019-01-24T02:16:06.247Z,-2.00
2019-01-24T02:18:32.518Z,-2.10
2019-01-24T02:20:58.776Z,-2.10
2019-01-24T02:23:25.136Z,-2.10
2019-01-24T02:25:51.387Z,-2.10
2019-01-24T02:28:17.621Z,-2.00
2019-01-24T02:30:44.039Z,-2.10
2019-01-24T02:33:10.280Z,-2.10
2019-01-24T02:35:36.558Z,-2.10
2019-01-24T02:38:03.437Z,-2.10
2019-01-24T02:40:29.705Z,-2.10
2019-01-24T02:42:55.967Z,-2.20
2019-01-24T02:45:23.346Z,-2.10
2019-01-24T02:47:50.022Z,-2.10
2019-01-24T02:50:18.186Z,-2.20
2019-01-24T02:52:44.649Z,-2.20
2019-01-24T02:55:13.029Z,-2.20
2019-01-24T02:57:39.286Z,-2.20
2019-01-24T03:00:16.913Z,-2.20
2019-01-24T03:02:43.573Z,-2.20
2019-01-24T03:05:12.819Z,-2.20
2019-01-24T03:07:39.088Z,-2.20
2019-01-24T03:10:08.787Z,-2.20
2019-01-24T03:12:35.028Z,-2.20
2019-01-24T03:15:01.586Z,-2.20
2019-01-24T03:17:27.906Z,-2.20
2019-01-24T03:19:54.184Z,-2.20
2019-01-24T03:22:20.807Z,-2.20
2019-01-24T03:24:47.161Z,-2.20
2019-01-24T03:27:13.435Z,-2.20
2019-01-24T03:29:39.694Z,-2.20
2019-01-24T03:32:05.959Z,-2.20
2019-01-24T03:34:32.549Z,-2.20
2019-01-24T03:36:58.834Z,-2.10
2019-01-24T03:39:25.083Z,-2.20
2019-01-24T03:41:51.347Z,-2.20
2019-01-24T03:44:17.621Z,-2.20
2019-01-24T03:46:43.853Z,-2.20
2019-01-24T03:49:10.159Z,-2.10
2019-01-24T03:51:36.511Z,-2.20
2019-01-24T03:54:03.083Z,-2.20
2019-01-24T03:56:29.663Z,-2.10
2019-01-24T03:58:56.015Z,-2.20
2019-01-24T04:01:22.399Z,-2.20
2019-01-24T04:03:49.247Z,-2.30
2019-01-24T04:06:15.632Z,-2.20
2019-01-24T04:08:41.903Z,-2.20
2019-01-24T04:11:08.143Z,-2.20
2019-01-24T04:13:34.420Z,-2.20
2019-01-24T04:16:00.808Z,-2.30
2019-01-24T04:18:27.389Z,-2.30
2019-01-24T04:20:53.684Z,-2.30
2019-01-24T04:23:20.252Z,-2.30
2019-01-24T04:25:46.495Z,-2.30
2019-01-24T04:28:12.777Z,-2.30
2019-01-24T04:30:39.043Z,-2.30
2019-01-24T04:33:05.791Z,-2.30
2019-01-24T04:35:32.046Z,-2.30
2019-01-24T04:37:58.311Z,-2.30
2019-01-24T04:40:24.601Z,-2.30
2019-01-24T04:42:50.948Z,-2.30
2019-01-24T04:45:17.501Z,-2.20
2019-01-24T04:47:43.884Z,-2.30
2019-01-24T04:50:15.308Z,-2.30
2019-01-24T04:52:41.671Z,-2.30
2019-01-24T04:55:10.247Z,-2.30
2019-01-24T04:57:36.848Z,-2.30
2019-01-24T05:00:12.599Z,-2.40
2019-01-24T05:02:38.972Z,-2.30
2019-01-24T05:05:05.522Z,-2.30
2019-01-24T05:07:31.790Z,-2.40
2019-01-24T05:09:58.061Z,-2.40
2019-01-24T05:12:24.340Z,-2.40
2019-01-24T05:14:50.612Z,-2.40
2019-01-24T05:17:16.847Z,-2.40
2019-01-24T05:19:43.145Z,-2.40
2019-01-24T05:22:09.383Z,-2.40
2019-01-24T05:24:35.740Z,-2.50
2019-01-24T05:27:02.139Z,-2.50
2019-01-24T05:29:28.395Z,-2.50
2019-01-24T05:31:54.995Z,-2.40
2019-01-24T05:34:21.292Z,-2.50
2019-01-24T05:36:47.545Z,-2.50
2019-01-24T05:39:14.195Z,-2.50
2019-01-24T05:41:40.461Z,-2.50
2019-01-24T05:44:06.711Z,-2.50
2019-01-24T05:46:32.996Z,-2.40
2019-01-24T05:49:00.249Z,-2.50
2019-01-24T05:51:26.523Z,-2.50
2019-01-24T05:53:52.774Z,-2.50
2019-01-24T05:56:19.035Z,-2.50
2019-01-24T05:58:45.332Z,-2.40
2019-01-24T06:01:12.172Z,-2.50
2019-01-24T06:03:38.420Z,-2.50
2019-01-24T06:06:04.715Z,-2.60
2019-01-24T06:08:31.279Z,-2.60
2019-01-24T06:10:57.761Z,-2.70
2019-01-24T06:13:24.112Z,-2.70
2019-01-24T06:15:50.394Z,-2.70
2019-01-24T06:18:16.755Z,-2.70
2019-01-24T06:20:43.046Z,-2.70
2019-01-24T06:23:09.315Z,-2.70
2019-01-24T06:25:37.603Z,-2.70
2019-01-24T06:28:04.052Z,-2.70
2019-01-24T06:30:30.399Z,-2.70
2019-01-24T06:32:56.769Z,-2.80
2019-01-24T06:35:23.143Z,-2.80
2019-01-24T06:37:49.607Z,-2.70
2019-01-24T06:40:16.208Z,-2.80
2019-01-24T06:42:42.574Z,-2.80
2019-01-24T06:45:12.345Z,-2.70
2019-01-24T06:47:38.610Z,-2.80
2019-01-24T06:50:08.581Z,-2.80
2019-01-24T06:52:34.831Z,-2.90
2019-01-24T06:55:01.462Z,-2.70
2019-01-24T06:57:27.711Z,-2.70
2019-01-24T06:59:53.984Z,-2.70
2019-01-24T07:02:20.251Z,-2.70
2019-01-24T07:04:46.520Z,-2.80
2019-01-24T07:07:12.790Z,-2.80
2019-01-24T07:09:39.059Z,-2.80
2019-01-24T07:12:05.340Z,-2.80
2019-01-24T07:14:31.612Z,-2.80
2019-01-24T07:16:57.876Z,-2.80
2019-01-24T07:19:24.150Z,-2.80
2019-01-24T07:21:50.421Z,-2.80
2019-01-24T07:24:16.767Z,-2.90
2019-01-24T07:26:43.063Z,-2.80
2019-01-24T07:29:09.316Z,-2.80
2019-01-24T07:31:35.555Z,-2.80
2019-01-24T07:34:01.840Z,-2.80
2019-01-24T07:36:28.188Z,-2.90
2019-01-24T07:38:54.482Z,-2.90
2019-01-24T07:41:20.731Z,-2.90
2019-01-24T07:43:47.003Z,-3.00
2019-01-24T07:46:13.258Z,-2.90
2019-01-24T07:48:39.515Z,-2.90
2019-01-24T07:51:05.775Z,-2.90
2019-01-24T07:53:32.063Z,-2.90
2019-01-24T07:55:58.416Z,-2.80
2019-01-24T07:58:24.806Z,-2.90
2019-01-24T08:00:51.090Z,-2.80
2019-01-24T08:03:17.348Z,-2.80
2019-01-24T08:05:43.621Z,-2.90
2019-01-24T08:08:09.888Z,-2.90
2019-01-24T08:10:36.123Z,-2.90
2019-01-24T08:13:03.102Z,-2.90
2019-01-24T08:15:29.462Z,-2.90
2019-01-24T08:17:55.744Z,-2.90
2019-01-24T08:20:26.734Z,-3.00
2019-01-24T08:22:53.007Z,-2.90
2019-01-24T08:25:19.461Z,-2.90
2019-01-24T08:27:45.823Z,-2.80
2019-01-24T08:30:20.484Z,-2.80
2019-01-24T08:32:47.082Z,-2.80
2019-01-24T08:35:13.332Z,-2.80
2019-01-24T08:37:39.819Z,-2.80
2019-01-24T08:40:12.538Z,-2.80
2019-01-24T08:42:38.807Z,-2.80
2019-01-24T08:45:07.971Z,-2.90
2019-01-24T08:47:34.214Z,-2.90
2019-01-24T08:50:00.489Z,-2.80
2019-01-24T08:52:26.754Z,-2.80
2019-01-24T08:54:53.012Z,-2.80
2019-01-24T08:57:19.303Z,-2.70
2019-01-24T08:59:45.610Z,-2.70
2019-01-24T09:02:11.843Z,-2.70
2019-01-24T09:04:38.139Z,-2.70
2019-01-24T09:07:04.404Z,-2.80
2019-01-24T09:09:30.667Z,-2.80
2019-01-24T09:11:56.942Z,-2.70
2019-01-24T09:14:23.198Z,-2.60
2019-01-24T09:16:49.482Z,-2.70
2019-01-24T09:19:15.743Z,-2.70
2019-01-24T09:21:42.115Z,-2.70
2019-01-24T09:24:08.393Z,-2.60
2019-01-24T09:26:34.651Z,-2.70
2019-01-24T09:29:01.004Z,-2.60
2019-01-24T09:31:27.650Z,-2.60
2019-01-24T09:33:53.893Z,-2.70
2019-01-24T09:36:20.162Z,-2.60
2019-01-24T09:38:46.433Z,-2.60
2019-01-24T09:41:12.671Z,-2.60
2019-01-24T09:43:39.067Z,-2.50
2019-01-24T09:46:05.322Z,-2.50
2019-01-24T09:48:31.577Z,-2.60
2019-01-24T09:50:57.869Z,-2.50
2019-01-24T09:53:24.483Z,-2.40
2019-01-24T09:55:50.746Z,-2.50
2019-01-24T09:58:17.139Z,-2.50
2019-01-24T10:00:43.500Z,-2.50
2019-01-24T10:03:09.967Z,-2.40
2019-01-24T10:05:36.332Z,-2.50
2019-01-24T10:08:03.284Z,-2.50
2019-01-24T10:10:29.971Z,-2.50
2019-01-24T10:12:56.925Z,-2.50
2019-01-24T10:15:23.513Z,-2.60
2019-01-24T10:17:50.266Z,-2.40
2019-01-24T10:20:19.438Z,-2.40
2019-01-24T10:22:45.832Z,-2.40
2019-01-24T10:25:15.586Z,-2.40
2019-01-24T10:27:42.311Z,-2.30
2019-01-24T10:30:12.078Z,-2.40
2019-01-24T10:32:38.449Z,-2.30
2019-01-24T10:35:04.910Z,-2.30
2019-01-24T10:37:32.779Z,-2.30
2019-01-24T10:39:59.465Z,-2.40
2019-01-24T10:42:25.834Z,-2.40
2019-01-24T10:44:52.215Z,-2.30
2019-01-24T10:47:18.462Z,-2.30
2019-01-24T10:49:44.739Z,-2.30
2019-01-24T10:52:11.112Z,-2.40
2019-01-24T10:54:37.396Z,-2.40
2019-01-24T10:57:03.887Z,-2.50
2019-01-24T10:59:30.860Z,-2.50
2019-01-24T11:01:57.347Z,-2.50
2019-01-24T11:04:23.624Z,-2.50
2019-01-24T11:06:50.216Z,-2.40
2019-01-24T11:09:16.758Z,-2.30
2019-01-24T11:11:43.103Z,-2.40
2019-01-24T11:14:09.569Z,-2.30
2019-01-24T11:16:35.858Z,-2.40
2019-01-24T11:19:02.624Z,-2.30
2019-01-24T11:21:28.883Z,-2.30
2019-01-24T11:23:55.251Z,-2.30
2019-01-24T11:26:21.534Z,-2.20
2019-01-24T11:28:47.785Z,-2.10
2019-01-24T11:31:14.179Z,-2.10
2019-01-24T11:33:40.425Z,-2.20
2019-01-24T11:36:06.691Z,-2.20
2019-01-24T11:38:32.945Z,-2.10
2019-01-24T11:40:59.432Z,-2.20
2019-01-24T11:43:25.711Z,-2.20
2019-01-24T11:45:51.961Z,-2.20
2019-01-24T11:48:18.219Z,-2.20
2019-01-24T11:50:44.502Z,-2.20
2019-01-24T11:53:10.874Z,-2.30
2019-01-24T11:55:37.248Z,-2.30
2019-01-24T11:58:03.913Z,-2.30
2019-01-24T12:00:37.315Z,-2.30
2019-01-24T12:03:05.026Z,-2.30
2019-01-24T12:05:31.383Z,-2.20
2019-01-24T12:07:58.104Z,-2.20
2019-01-24T12:10:26.208Z,-2.10
2019-01-24T12:12:52.449Z,-2.10
2019-01-24T12:15:20.811Z,-2.20
2019-01-24T12:17:47.176Z,-2.10
2019-01-24T12:20:15.936Z,-2.10
2019-01-24T12:22:42.206Z,-2.00
2019-01-24T12:25:09.585Z,-2.10
2019-01-24T12:27:35.839Z,-2.20
2019-01-24T12:30:05.927Z,-2.20
2019-01-24T12:32:32.167Z,-2.20
2019-01-24T12:34:58.417Z,-2.30
2019-01-24T12:37:24.723Z,-2.20
2019-01-24T12:39:50.955Z,-2.20
2019-01-24T12:42:17.218Z,-2.10
2019-01-24T12:44:43.511Z,-2.20
2019-01-24T12:47:09.864Z,-2.20
2019-01-24T12:49:36.154Z,-2.20
2019-01-24T12:52:02.616Z,-2.20
2019-01-24T12:54:28.891Z,-2.20
2019-01-24T12:56:55.150Z,-2.30
2019-01-24T12:59:21.392Z,-2.30
2019-01-24T13:01:47.683Z,-2.30
2019-01-24T13:04:13.962Z,-2.30
2019-01-24T13:06:40.227Z,-2.30
2019-01-24T13:09:06.806Z,-2.30
2019-01-24T13:11:33.047Z,-2.30
2019-01-24T13:13:59.305Z,-2.40
2019-01-24T13:16:25.599Z,-2.60
2019-01-24T13:18:51.840Z,-2.70
2019-01-24T13:21:18.102Z,-2.70
2019-01-24T13:23:44.391Z,-2.60
2019-01-24T13:26:10.744Z,-2.60
2019-01-24T13:28:37.027Z,-2.60
2019-01-24T13:31:03.400Z,-2.60
2019-01-24T13:33:29.639Z,-2.60
2019-01-24T13:35:55.926Z,-2.60
2019-01-24T13:38:23.186Z,-2.60
2019-01-24T13:40:49.804Z,-2.60
2019-01-24T13:43:16.081Z,-2.60
2019-01-24T13:45:42.315Z,-2.50
2019-01-24T13:48:08.809Z,-2.50
2019-01-24T13:50:35.055Z,-2.50
2019-01-24T13:53:01.536Z,-2.60
2019-01-24T13:55:27.807Z,-2.50
2019-01-24T13:57:54.185Z,-2.60
2019-01-24T14:00:33.063Z,-2.60
2019-01-24T14:03:08.967Z,-2.50
2019-01-24T14:05:35.227Z,-2.60
2019-01-24T14:08:01.481Z,-2.60
2019-01-24T14:10:27.742Z,-2.60
2019-01-24T14:12:54.099Z,-2.70
2019-01-24T14:15:20.691Z,-2.70
2019-01-24T14:17:47.035Z,-2.70
2019-01-24T14:20:22.894Z,-2.70
2019-01-24T14:22:49.464Z,-2.70
2019-01-24T14:25:17.637Z,-2.60
2019-01-24T14:27:44.123Z,-2.70
2019-01-24T14:30:17.000Z,-2.70
2019-01-24T14:32:43.349Z,-2.70
2019-01-24T14:35:09.886Z,-2.60
2019-01-24T14:37:39.740Z,-2.70
2019-01-24T14:40:07.631Z,-2.60
2019-01-24T14:42:33.918Z,-2.60
2019-01-24T14:45:00.526Z,-2.70
2019-01-24T14:47:26.790Z,-2.70
2019-01-24T14:49:53.067Z,-2.70
2019-01-24T14:52:19.326Z,-2.70
2019-01-24T14:54:45.591Z,-2.70
2019-01-24T14:57:11.851Z,-2.70
2019-01-24T14:59:38.130Z,-2.70
2019-01-24T15:02:05.114Z,-2.70
2019-01-24T15:04:31.366Z,-2.60
2019-01-24T15:06:57.647Z,-2.70
2019-01-24T15:09:23.891Z,-2.70
2019-01-24T15:11:50.158Z,-2.70
2019-01-24T15:14:16.517Z,-2.80
2019-01-24T15:16:42.788Z,-2.90
2019-01-24T15:19:09.055Z,-2.90
2019-01-24T15:21:36.032Z,-2.90
2019-01-24T15:24:02.780Z,-3.00
2019-01-24T15:26:29.170Z,-3.00
2019-01-24T15:28:55.687Z,-2.90
2019-01-24T15:31:21.954Z,-2.90
2019-01-24T15:33:48.235Z,-3.00
2019-01-24T15:36:14.475Z,-3.00
2019-01-24T15:38:40.754Z,-3.00
2019-01-24T15:41:07.043Z,-3.00
2019-01-24T15:43:33.407Z,-3.00
2019-01-24T15:45:59.778Z,-3.00
2019-01-24T15:48:26.056Z,-2.90
2019-01-24T15:50:52.399Z,-2.80
2019-01-24T15:53:19.008Z,-3.00
2019-01-24T15:55:45.359Z,-3.00
2019-01-24T15:58:11.728Z,-3.00
2019-01-24T16:00:38.098Z,-3.00
2019-01-24T16:03:04.951Z,-3.10
2019-01-24T16:05:31.341Z,-3.00
2019-01-24T16:08:01.656Z,-3.00
2019-01-24T16:10:25.737Z,-2.90
2019-01-24T16:12:52.654Z,-2.90
2019-01-24T16:15:21.599Z,-2.90
2019-01-24T16:17:47.965Z,-2.90
2019-01-24T16:20:16.859Z,-2.90
2019-01-24T16:22:43.117Z,-3.00
2019-01-24T16:25:12.416Z,-2.90
2019-01-24T16:27:38.772Z,-3.00
2019-01-24T16:30:11.831Z,-3.00
2019-01-24T16:32:38.110Z,-3.10
2019-01-24T16:35:08.164Z,-3.10
2019-01-24T16:37:34.455Z,-3.10
2019-01-24T16:40:00.722Z,-3.10
2019-01-24T16:42:26.972Z,-3.10
2019-01-24T16:44:53.371Z,-3.10
2019-01-24T16:47:19.936Z,-3.10
2019-01-24T16:49:46.187Z,-3.10
2019-01-24T16:52:12.466Z,-3.10
2019-01-24T16:54:38.712Z,-3.20
2019-01-24T16:57:05.017Z,-3.20
2019-01-24T16:59:39.936Z,-3.20
2019-01-24T17:02:08.682Z,-3.10
2019-01-24T17:04:37.247Z,-3.10
2019-01-24T17:07:06.097Z,-3.20
2019-01-24T17:09:34.667Z,-3.20
2019-01-24T17:12:03.338Z,-3.20
2019-01-24T17:14:32.014Z,-3.20
2019-01-24T17:17:00.651Z,-3.10
2019-01-24T17:19:29.439Z,-3.10
2019-01-24T17:21:58.017Z,-3.10
2019-01-24T17:24:26.575Z,-3.10
2019-01-24T17:26:55.182Z,-3.10
2019-01-24T17:29:23.758Z,-3.20
2019-01-24T17:31:52.352Z,-3.10
2019-01-24T17:34:21.319Z,-3.10
2019-01-24T17:36:49.878Z,-3.10
2019-01-24T17:39:18.465Z,-3.20
2019-01-24T17:41:47.071Z,-3.20
2019-01-24T17:44:15.944Z,-3.20
2019-01-24T17:46:44.557Z,-3.20
2019-01-24T17:49:13.116Z,-3.30
2019-01-24T17:51:41.711Z,-3.30
2019-01-24T17:54:10.321Z,-3.30
2019-01-24T17:56:38.891Z,-3.20
2019-01-24T17:59:07.507Z,-3.30
2019-01-24T18:01:36.085Z,-3.30
2019-01-24T18:04:04.998Z,-3.30
2019-01-24T18:06:33.582Z,-3.30
2019-01-24T18:09:02.155Z,-3.20
2019-01-24T18:11:30.736Z,-3.20
2019-01-24T18:13:59.412Z,-3.20
2019-01-24T18:16:28.054Z,-3.30
2019-01-24T18:18:56.661Z,-3.30
2019-01-24T18:21:25.267Z,-3.30
2019-01-24T18:23:53.899Z,-3.30
2019-01-24T18:26:22.546Z,-3.40
2019-01-24T18:28:51.135Z,-3.40
2019-01-24T18:31:19.696Z,-3.30
2019-01-24T18:33:48.381Z,-3.30
2019-01-24T18:36:17.011Z,-3.20
2019-01-24T18:38:45.626Z,-3.10
2019-01-24T18:41:14.298Z,-3.10
2019-01-24T18:43:42.851Z,-3.00
2019-01-24T18:46:11.457Z,-3.10
2019-01-24T18:48:40.134Z,-3.10
2019-01-24T18:51:08.807Z,-3.10
2019-01-24T18:53:37.527Z,-3.20
2019-01-24T18:56:06.158Z,-3.30
2019-01-24T18:58:35.006Z,-3.30
2019-01-24T19:01:04.290Z,-3.30
2019-01-24T19:03:33.016Z,-3.30
2019-01-24T19:06:01.603Z,-3.30
2019-01-24T19:08:30.183Z,-3.30
2019-01-24T19:10:58.742Z,-3.30
2019-01-24T19:13:27.351Z,-3.40
2019-01-24T19:15:56.079Z,-3.30
2019-01-24T19:18:24.766Z,-3.40
2019-01-24T19:20:53.350Z,-3.30
2019-01-24T19:23:21.907Z,-3.40
2019-01-24T19:25:50.582Z,-3.40
2019-01-24T19:28:19.206Z,-3.40
2019-01-24T19:30:47.868Z,-3.50
2019-01-24T19:33:16.530Z,-3.50
2019-01-24T19:35:45.183Z,-3.50
2019-01-24T19:38:13.848Z,-3.50
2019-01-24T19:40:42.562Z,-3.50
2019-01-24T19:43:11.194Z,-3.40
2019-01-24T19:45:39.865Z,-3.30
2019-01-24T19:48:08.775Z,-3.50
2019-01-24T19:50:37.737Z,-3.50
2019-01-24T19:53:06.954Z,-3.50
2019-01-24T19:55:35.586Z,-3.40
2019-01-24T19:58:04.859Z,-3.50
2019-01-24T20:00:33.789Z,-3.40
2019-01-24T20:03:02.453Z,-3.40
2019-01-24T20:05:31.111Z,-3.30
2019-01-24T20:07:59.831Z,-3.40
2019-01-24T20:10:29.872Z,-3.30
2019-01-24T20:12:58.700Z,-3.40
2019-01-24T20:15:29.623Z,-3.60
2019-01-24T20:17:58.937Z,-3.40
2019-01-24T20:20:28.274Z,-3.40
2019-01-24T20:22:57.019Z,-3.40
2019-01-24T20:25:28.139Z,-3.50
2019-01-24T20:27:56.740Z,-3.40
2019-01-24T20:30:27.296Z,-3.40
2019-01-24T20:32:56.553Z,-3.50
2019-01-24T20:35:30.695Z,-3.50
2019-01-24T20:37:59.446Z,-3.50
2019-01-24T20:40:28.072Z,-3.50
2019-01-24T20:42:56.748Z,-3.40
2019-01-24T20:45:25.364Z,-3.40
2019-01-24T20:47:53.969Z,-3.30
2019-01-24T20:50:22.559Z,-3.30
2019-01-24T20:52:51.191Z,-3.40
2019-01-24T20:55:19.853Z,-3.30
2019-01-24T20:57:48.496Z,-3.30
2019-01-24T21:00:24.750Z,-3.30
2019-01-24T21:02:55.163Z,-3.40
2019-01-24T21:05:24.803Z,-3.50
2019-01-24T21:07:53.560Z,-3.60
2019-01-24T21:10:27.066Z,-3.60
2019-01-24T21:12:55.826Z,-3.50
2019-01-24T21:15:24.499Z,-3.50
2019-01-24T21:17:53.179Z,-3.50
2019-01-24T21:20:24.515Z,-3.50
2019-01-24T21:22:53.356Z,-3.50
2019-01-24T21:25:23.734Z,-3.40
2019-01-24T21:27:52.536Z,-3.60
2019-01-24T21:30:30.072Z,-3.50
2019-01-24T21:32:58.682Z,-3.50
2019-01-24T21:35:27.271Z,-3.50
2019-01-24T21:37:55.975Z,-3.60
2019-01-24T21:40:25.537Z,-3.50
2019-01-24T21:42:54.582Z,-3.50
2019-01-24T21:45:34.534Z,-3.40
2019-01-24T21:48:03.245Z,-3.50
2019-01-24T21:50:33.453Z,-3.50
2019-01-24T21:53:02.279Z,-3.50
2019-01-24T21:55:30.932Z,-3.70
2019-01-24T21:57:59.555Z,-3.60
2019-01-24T22:00:29.311Z,-3.60
2019-01-24T22:02:58.389Z,-3.60
2019-01-24T22:05:27.630Z,-3.50
2019-01-24T22:07:56.262Z,-3.50
2019-01-24T22:10:30.143Z,-3.60
2019-01-24T22:12:58.846Z,-3.50
2019-01-24T22:15:29.505Z,-3.40
2019-01-24T22:17:58.875Z,-3.40
2019-01-24T22:20:27.784Z,-3.40
2019-01-24T22:22:56.398Z,-3.40
2019-01-24T22:25:27.343Z,-3.40
2019-01-24T22:27:56.236Z,-3.40
2019-01-24T22:30:29.560Z,-3.40
2019-01-24T22:32:58.142Z,-3.40
2019-01-24T22:35:26.838Z,-3.40
2019-01-24T22:37:55.601Z,-3.20
2019-01-24T22:40:24.349Z,-3.20
2019-01-24T22:42:53.055Z,-3.30
2019-01-24T22:45:24.103Z,-3.20
2019-01-24T22:47:52.862Z,-3.30
2019-01-24T22:50:21.866Z,-3.20
2019-01-24T22:52:50.591Z,-3.20
2019-01-24T22:55:19.279Z,-3.30
2019-01-24T22:57:47.957Z,-3.30
2019-01-24T23:00:36.188Z,-3.30
2019-01-24T23:03:05.811Z,-3.30
2019-01-24T23:05:34.395Z,-3.40
2019-01-24T23:08:03.003Z,-3.40
2019-01-24T23:10:31.972Z,-3.40
2019-01-24T23:13:00.730Z,-3.40
2019-01-24T23:15:29.742Z,-3.40
2019-01-24T23:17:58.327Z,-3.50
2019-01-24T23:20:26.932Z,-3.40
2019-01-24T23:22:55.556Z,-3.40
2019-01-24T23:25:24.233Z,-3.40
2019-01-24T23:27:52.935Z,-3.40
2019-01-24T23:30:21.534Z,-3.40
2019-01-24T23:32:50.144Z,-3.40
2019-01-24T23:35:18.831Z,-3.40
2019-01-24T23:37:52.369Z,-3.40
2019-01-24T23:40:18.294Z,-3.40
2019-01-24T23:42:47.327Z,-3.30
2019-01-24T23:45:15.933Z,-3.30
2019-01-24T23:47:44.616Z,-3.40
2019-01-24T23:50:13.488Z,-3.40
2019-01-24T23:52:42.081Z,-3.50
2019-01-24T23:55:10.956Z,-3.50
2019-01-24T23:57:39.549Z,-3.40
